createdAt,value
2022-12-04T00:01:08.989Z,100224.03
2022-12-04T00:03:36.472Z,100223.06
2022-12-04T00:06:17.254Z,100225.81
2022-12-04T00:08:44.004Z,100226.44
2022-12-04T00:11:12.030Z,100230.91
2022-12-04T00:13:39.150Z,100222.34
2022-12-04T00:16:08.487Z,100227.59
2022-12-04T00:18:35.652Z,100219.63
2022-12-04T00:21:06.922Z,100218.78
2022-12-04T00:23:34.756Z,100222.34
2022-12-04T00:26:03.278Z,100217.81
2022-12-04T00:28:29.806Z,100216.81
2022-12-04T00:30:56.183Z,100218.22
2022-12-04T00:33:23.584Z,100215.22
2022-12-04T00:36:00.764Z,100219.34
2022-12-04T00:38:27.591Z,100223.00
2022-12-04T00:40:54.756Z,100212.06
2022-12-04T00:43:22.355Z,100215.41
2022-12-04T00:45:49.430Z,100208.31
2022-12-04T00:48:16.048Z,100215.59
2022-12-04T00:50:42.409Z,100217.13
2022-12-04T00:53:08.862Z,100220.00
2022-12-04T00:55:41.085Z,100219.38
2022-12-04T00:58:07.879Z,100213.38
2022-12-04T01:00:35.823Z,100215.81
2022-12-04T01:03:02.646Z,100207.88
2022-12-04T01:05:29.111Z,100215.81
2022-12-04T01:07:55.563Z,100211.44
2022-12-04T01:10:22.114Z,100210.78
2022-12-04T01:12:53.616Z,100205.16
2022-12-04T01:15:22.816Z,100195.63
2022-12-04T01:18:03.574Z,100199.91
2022-12-04T01:20:32.547Z,100200.38
2022-12-04T01:22:59.048Z,100199.06
2022-12-04T01:25:25.399Z,100195.81
2022-12-04T01:27:51.757Z,100197.50
2022-12-04T01:30:20.138Z,100205.81
2022-12-04T01:32:46.508Z,100191.34
2022-12-04T01:35:12.975Z,100193.84
2022-12-04T01:37:39.615Z,100190.19
2022-12-04T01:40:06.868Z,100189.56
2022-12-04T01:42:33.247Z,100191.34
2022-12-04T01:45:30.767Z,100186.09
2022-12-04T01:48:06.539Z,100166.84
2022-12-04T01:50:33.443Z,100156.38
2022-12-04T01:53:02.044Z,100163.28
2022-12-04T01:55:29.945Z,100162.44
2022-12-04T01:57:56.947Z,100156.94
2022-12-04T02:00:24.187Z,100149.06
2022-12-04T02:02:50.902Z,100151.69
2022-12-04T02:05:20.811Z,100150.00
2022-12-04T02:07:48.875Z,100145.72
2022-12-04T02:10:17.170Z,100143.84
2022-12-04T02:13:03.402Z,100149.91
2022-12-04T02:15:50.883Z,100136.91
2022-12-04T02:18:27.427Z,100135.88
2022-12-04T02:21:14.029Z,100143.84
2022-12-04T02:23:58.872Z,100144.56
2022-12-04T02:26:34.011Z,100139.31
2022-12-04T02:29:27.605Z,100138.22
2022-12-04T02:32:16.148Z,100143.44
2022-12-04T02:34:55.590Z,100137.25
2022-12-04T02:37:32.356Z,100134.63
2022-12-04T02:40:07.737Z,100131.09
2022-12-04T02:42:42.400Z,100132.03
2022-12-04T02:45:14.315Z,100136.13
2022-12-04T02:47:43.247Z,100131.00
2022-12-04T02:50:13.522Z,100132.78
2022-12-04T02:52:46.396Z,100137.06
2022-12-04T02:55:21.755Z,100139.66
2022-12-04T02:57:53.187Z,100139.66
2022-12-04T03:00:21.228Z,100135.28
2022-12-04T03:02:55.347Z,100137.81
2022-12-04T03:05:27.696Z,100130.69
2022-12-04T03:08:01.079Z,100128.09
2022-12-04T03:10:34.277Z,100120.22
2022-12-04T03:13:09.262Z,100120.03
2022-12-04T03:15:45.905Z,100116.47
2022-12-04T03:18:18.337Z,100112.25
2022-12-04T03:20:48.298Z,100120.88
2022-12-04T03:23:20.451Z,100129.88
2022-12-04T03:25:59.089Z,100126.72
2022-12-04T03:28:40.293Z,100127.97
2022-12-04T03:31:09.298Z,100128.81
2022-12-04T03:33:43.273Z,100135.53
2022-12-04T03:36:28.179Z,100130.38
2022-12-04T03:39:00.518Z,100124.22
2022-12-04T03:41:36.216Z,100126.09
2022-12-04T03:44:12.598Z,100131.22
2022-12-04T03:46:52.209Z,100128.38
2022-12-04T03:50:02.509Z,100125.06
2022-12-04T03:52:42.238Z,100127.75
2022-12-04T03:55:15.812Z,100135.72
2022-12-04T03:57:45.337Z,100136.03
2022-12-04T04:00:18.853Z,100132.22
2022-12-04T04:02:52.447Z,100139.75
2022-12-04T04:05:20.276Z,100140.16
2022-12-04T04:07:51.060Z,100139.41
2022-12-04T04:10:22.208Z,100127.47
2022-12-04T04:13:16.229Z,100137.00
2022-12-04T04:16:07.258Z,100131.97
2022-12-04T04:18:52.360Z,100145.06
2022-12-04T04:21:41.908Z,100140.56
2022-12-04T04:24:18.769Z,100137.19
2022-12-04T04:26:47.297Z,100130.81
2022-12-04T04:29:14.301Z,100131.75
2022-12-04T04:32:08.546Z,100146.66
2022-12-04T04:34:50.434Z,100144.66
2022-12-04T04:37:32.256Z,100137.41
2022-12-04T04:40:19.022Z,100130.31
2022-12-04T04:42:55.500Z,100130.72
2022-12-04T04:45:35.964Z,100123.16
2022-12-04T04:48:08.538Z,100126.13
2022-12-04T04:50:36.993Z,100128.09
2022-12-04T04:53:08.981Z,100128.88
2022-12-04T04:55:36.569Z,100124.25
2022-12-04T04:58:11.245Z,100123.69
2022-12-04T05:00:38.766Z,100125.06
2022-12-04T05:03:06.023Z,100122.38
2022-12-04T05:05:32.415Z,100129.69
2022-12-04T05:07:58.842Z,100132.84
2022-12-04T05:10:25.247Z,100108.53
2022-12-04T05:12:51.639Z,100119.00
2022-12-04T05:15:18.088Z,100113.97
2022-12-04T05:17:44.427Z,100127.41
2022-12-04T05:20:11.263Z,100125.69
2022-12-04T05:22:38.111Z,100128.66
2022-12-04T05:25:06.036Z,100120.25
2022-12-04T05:27:33.088Z,100115.22
2022-12-04T05:29:59.744Z,100122.38
2022-12-04T05:32:28.002Z,100115.03
2022-12-04T05:34:57.125Z,100127.19
2022-12-04T05:37:24.235Z,100111.91
2022-12-04T05:39:50.642Z,100117.13
2022-12-04T05:42:17.039Z,100110.31
2022-12-04T05:44:43.397Z,100103.41
2022-12-04T05:47:10.004Z,100100.16
2022-12-04T05:49:36.475Z,100097.44
2022-12-04T05:52:05.075Z,100101.84
2022-12-04T05:54:31.819Z,100104.34
2022-12-04T05:56:58.307Z,100105.19
2022-12-04T05:59:24.679Z,100097.03
2022-12-04T06:01:51.078Z,100096.81
2022-12-04T06:04:17.501Z,100092.66
2022-12-04T06:06:43.915Z,100085.91
2022-12-04T06:09:11.483Z,100084.97
2022-12-04T06:11:40.050Z,100093.47
2022-12-04T06:14:09.100Z,100104.66
2022-12-04T06:16:37.967Z,100099.63
2022-12-04T06:19:11.056Z,100092.66
2022-12-04T06:21:39.811Z,100103.13
2022-12-04T06:24:07.399Z,100102.25
2022-12-04T06:26:33.771Z,100102.38
2022-12-04T06:29:00.406Z,100102.47
2022-12-04T06:31:29.028Z,100114.00
2022-12-04T06:33:57.350Z,100110.44
2022-12-04T06:36:24.370Z,100105.00
2022-12-04T06:38:51.715Z,100112.13
2022-12-04T06:41:20.943Z,100110.44
2022-12-04T06:43:47.369Z,100101.00
2022-12-04T06:46:16.996Z,100114.19
2022-12-04T06:48:43.538Z,100123.63
2022-12-04T06:51:16.897Z,100118.41
2022-12-04T06:53:44.020Z,100117.34
2022-12-04T06:56:16.132Z,100120.09
2022-12-04T06:58:42.473Z,100120.38
2022-12-04T07:01:11.733Z,100126.69
2022-12-04T07:03:39.050Z,100125.13
2022-12-04T07:06:24.454Z,100118.84
2022-12-04T07:08:58.120Z,100121.47
2022-12-04T07:11:24.837Z,100124.78
2022-12-04T07:13:51.460Z,100119.34
2022-12-04T07:16:20.794Z,100120.91
2022-12-04T07:18:50.377Z,100119.47
2022-12-04T07:21:20.228Z,100118.94
2022-12-04T07:23:48.925Z,100126.06
2022-12-04T07:26:15.376Z,100123.44
2022-12-04T07:28:41.941Z,100118.00
2022-12-04T07:31:13.685Z,100115.16
2022-12-04T07:33:40.686Z,100128.47
2022-12-04T07:36:09.851Z,100123.94
2022-12-04T07:38:36.282Z,100127.75
2022-12-04T07:41:04.784Z,100129.19
2022-12-04T07:43:31.741Z,100129.19
2022-12-04T07:45:58.730Z,100114.97
2022-12-04T07:48:30.209Z,100123.03
2022-12-04T07:51:05.661Z,100119.66
2022-12-04T07:53:33.904Z,100116.09
2022-12-04T07:56:00.290Z,100115.25
2022-12-04T07:58:26.692Z,100112.56
2022-12-04T08:00:53.385Z,100112.34
2022-12-04T08:03:19.785Z,100115.66
2022-12-04T08:05:46.139Z,100109.59
2022-12-04T08:08:13.236Z,100105.19
2022-12-04T08:10:40.907Z,100108.56
2022-12-04T08:13:07.276Z,100118.00
2022-12-04T08:15:34.782Z,100118.41
2022-12-04T08:18:01.142Z,100104.47
2022-12-04T08:20:27.557Z,100110.66
2022-12-04T08:22:53.932Z,100116.94
2022-12-04T08:25:20.431Z,100110.31
2022-12-04T08:27:47.940Z,100119.97
2022-12-04T08:30:14.474Z,100113.38
2022-12-04T08:32:40.900Z,100116.63
2022-12-04T08:35:07.656Z,100116.72
2022-12-04T08:37:34.217Z,100114.38
2022-12-04T08:40:00.679Z,100114.41
2022-12-04T08:42:27.052Z,100118.41
2022-12-04T08:44:53.412Z,100118.41
2022-12-04T08:47:19.755Z,100114.00
2022-12-04T08:49:46.260Z,100111.47
2022-12-04T08:52:12.851Z,100114.00
2022-12-04T08:54:39.391Z,100111.66
2022-12-04T08:57:06.131Z,100117.13
2022-12-04T08:59:32.658Z,100114.81
2022-12-04T09:01:59.109Z,100114.50
2022-12-04T09:04:25.669Z,100106.81
2022-12-04T09:06:52.048Z,100104.09
2022-12-04T09:09:18.546Z,100103.91
2022-12-04T09:11:46.281Z,100096.00
2022-12-04T09:14:12.889Z,100106.41
2022-12-04T09:16:39.232Z,100104.00
2022-12-04T09:19:05.656Z,100102.56
2022-12-04T09:21:32.076Z,100101.72
2022-12-04T09:23:59.184Z,100094.69
2022-12-04T09:26:28.405Z,100092.47
2022-12-04T09:28:55.854Z,100098.66
2022-12-04T09:31:23.358Z,100099.81
2022-12-04T09:33:50.264Z,100096.75
2022-12-04T09:36:17.224Z,100107.47
2022-12-04T09:38:45.401Z,100100.13
2022-12-04T09:41:49.405Z,100112.47
2022-12-04T09:44:28.169Z,100107.03
2022-12-04T09:47:01.244Z,100105.75
2022-12-04T09:49:36.518Z,100101.56
2022-12-04T09:52:11.674Z,100102.38
2022-12-04T09:54:42.385Z,100100.69
2022-12-04T09:57:17.245Z,100095.13
2022-12-04T09:59:44.997Z,100096.47
2022-12-04T10:02:33.347Z,100097.41
2022-12-04T10:04:59.991Z,100090.03
2022-12-04T10:07:28.912Z,100088.81
2022-12-04T10:10:04.579Z,100083.59
2022-12-04T10:12:46.306Z,100084.84
2022-12-04T10:15:40.409Z,100076.69
2022-12-04T10:18:15.671Z,100078.03
2022-12-04T10:20:51.161Z,100081.41
2022-12-04T10:23:51.972Z,100070.00
2022-12-04T10:26:23.860Z,100081.09
2022-12-04T10:29:01.036Z,100081.22
2022-12-04T10:31:29.657Z,100080.50
2022-12-04T10:33:58.655Z,100068.31
2022-12-04T10:36:31.793Z,100080.28
2022-12-04T10:39:10.757Z,100073.13
2022-12-04T10:41:45.528Z,100071.00
2022-12-04T10:44:16.952Z,100058.84
2022-12-04T10:46:46.311Z,100059.75
2022-12-04T10:49:29.881Z,100056.91
2022-12-04T10:51:56.417Z,100058.38
2022-12-04T10:54:37.372Z,100061.75
2022-12-04T10:57:08.620Z,100051.03
2022-12-04T10:59:38.764Z,100055.41
2022-12-04T11:02:24.294Z,100053.22
2022-12-04T11:05:17.869Z,100058.69
2022-12-04T11:07:47.355Z,100057.81
2022-12-04T11:10:25.845Z,100063.28
2022-12-04T11:12:57.354Z,100054.78
2022-12-04T11:15:24.508Z,100065.41
2022-12-04T11:17:52.627Z,100062.78
2022-12-04T11:20:26.497Z,100065.16
2022-12-04T11:22:59.475Z,100056.78
2022-12-04T11:25:31.776Z,100058.28
2022-12-04T11:28:01.082Z,100052.66
2022-12-04T11:30:38.114Z,100060.19
2022-12-04T11:33:14.775Z,100060.19
2022-12-04T11:35:41.466Z,100060.19
2022-12-04T11:38:18.694Z,100052.69
2022-12-04T11:40:50.495Z,100057.09
2022-12-04T11:43:18.202Z,100062.34
2022-12-04T11:46:02.523Z,100051.84
2022-12-04T11:48:31.485Z,100060.94
2022-12-04T11:51:17.781Z,100048.75
2022-12-04T11:54:09.004Z,100054.94
2022-12-04T11:56:42.542Z,100052.47
2022-12-04T11:59:44.273Z,100047.47
2022-12-04T12:02:32.579Z,100044.00
2022-12-04T12:05:08.443Z,100052.59
2022-12-04T12:07:48.262Z,100034.09
2022-12-04T12:10:27.729Z,100032.31
2022-12-04T12:13:13.976Z,100031.34
2022-12-04T12:15:53.994Z,100036.13
2022-12-04T12:18:24.633Z,100027.31
2022-12-04T12:21:08.576Z,100029.69
2022-12-04T12:23:59.537Z,100025.16
2022-12-04T12:26:55.088Z,100011.53
2022-12-04T12:29:56.103Z,100008.47
2022-12-04T12:32:31.158Z,100006.78
2022-12-04T12:34:58.342Z,100004.88
2022-12-04T12:37:49.380Z,100003.19
2022-12-04T12:40:25.105Z,100001.16
2022-12-04T12:43:04.848Z,100002.72
2022-12-04T12:45:43.967Z,99993.03
2022-12-04T12:48:24.571Z,99998.88
2022-12-04T12:51:22.217Z,100001.16
2022-12-04T12:53:51.133Z,99990.41
2022-12-04T12:56:20.900Z,99984.91
2022-12-04T12:58:51.236Z,99986.19
2022-12-04T13:01:34.660Z,99990.03
2022-12-04T13:04:13.062Z,99986.19
2022-12-04T13:06:42.914Z,99984.28
2022-12-04T13:09:26.489Z,99982.38
2022-12-04T13:12:00.321Z,99980.19
2022-12-04T13:14:26.718Z,99976.38
2022-12-04T13:17:01.067Z,99974.22
2022-12-04T13:19:44.576Z,99971.59
2022-12-04T13:22:26.811Z,99965.38
2022-12-04T13:25:03.828Z,99965.13
2022-12-04T13:28:01.888Z,99967.34
2022-12-04T13:30:42.347Z,99960.78
2022-12-04T13:33:20.793Z,99963.88
2022-12-04T13:35:50.121Z,99967.47
2022-12-04T13:38:35.282Z,99965.53
2022-12-04T13:41:05.446Z,99965.88
2022-12-04T13:43:36.131Z,99964.31
2022-12-04T13:46:06.111Z,99971.47
2022-12-04T13:48:43.240Z,99959.72
2022-12-04T13:51:41.819Z,99960.66
2022-12-04T13:54:10.929Z,99955.59
2022-12-04T13:56:39.588Z,99960.16
2022-12-04T13:59:18.783Z,99961.13
2022-12-04T14:01:48.279Z,99961.13
2022-12-04T14:04:45.552Z,99965.16
2022-12-04T14:07:25.748Z,99968.88
2022-12-04T14:09:54.468Z,99975.94
2022-12-04T14:12:28.192Z,99974.97
2022-12-04T14:14:59.401Z,99980.75
2022-12-04T14:17:33.709Z,99981.19
2022-12-04T14:20:07.810Z,99980.50
2022-12-04T14:22:34.644Z,99985.75
2022-12-04T14:25:13.205Z,99986.47
2022-12-04T14:27:42.723Z,99992.09
2022-12-04T14:30:28.354Z,99985.09
2022-12-04T14:33:01.530Z,99980.09
2022-12-04T14:35:29.122Z,99974.47
2022-12-04T14:37:59.003Z,99975.38
2022-12-04T14:40:28.660Z,99981.06
2022-12-04T14:42:55.659Z,99975.47
2022-12-04T14:45:52.467Z,99980.72
2022-12-04T14:48:48.508Z,99971.53
2022-12-04T14:51:41.622Z,99977.06
2022-12-04T14:54:36.818Z,99973.72
2022-12-04T14:57:31.514Z,99968.47
2022-12-04T14:59:58.290Z,99966.34
2022-12-04T15:02:41.506Z,99961.31
2022-12-04T15:05:10.829Z,99967.28
2022-12-04T15:07:37.346Z,99958.44
2022-12-04T15:10:40.160Z,99945.66
2022-12-04T15:13:06.652Z,99950.91
2022-12-04T15:15:33.104Z,99958.69
2022-12-04T15:18:17.549Z,99953.38
2022-12-04T15:20:49.991Z,99950.50
2022-12-04T15:23:41.339Z,99953.34
2022-12-04T15:26:20.938Z,99948.09
2022-12-04T15:29:00.680Z,99946.44
2022-12-04T15:31:33.642Z,99939.72
2022-12-04T15:34:03.955Z,99939.03
2022-12-04T15:36:44.505Z,99937.47
2022-12-04T15:39:18.835Z,99935.94
2022-12-04T15:41:45.490Z,99943.09
2022-12-04T15:44:30.069Z,99942.41
2022-12-04T15:47:00.161Z,99944.06
2022-12-04T15:49:31.470Z,99937.97
2022-12-04T15:52:15.216Z,99939.91
2022-12-04T15:54:44.237Z,99939.91
2022-12-04T15:57:44.140Z,99938.81
2022-12-04T16:00:42.346Z,99932.72
2022-12-04T16:03:32.093Z,99928.75
2022-12-04T16:06:22.673Z,99937.59
2022-12-04T16:08:52.890Z,99934.47
2022-12-04T16:11:20.127Z,99938.06
2022-12-04T16:14:03.212Z,99939.72
2022-12-04T16:16:32.333Z,99937.34
2022-12-04T16:18:59.001Z,99934.97
2022-12-04T16:21:31.278Z,99938.31
2022-12-04T16:24:05.643Z,99933.88
2022-12-04T16:26:32.956Z,99941.91
2022-12-04T16:28:59.574Z,99938.56
2022-12-04T16:31:26.731Z,99930.78
2022-12-04T16:33:57.434Z,99938.56
2022-12-04T16:36:23.921Z,99938.81
2022-12-04T16:38:50.462Z,99934.97
2022-12-04T16:41:19.972Z,99938.06
2022-12-04T16:43:56.279Z,99937.22
2022-12-04T16:46:24.929Z,99927.78
2022-12-04T16:48:51.449Z,99934.47
2022-12-04T16:51:23.344Z,99932.22
2022-12-04T16:53:53.881Z,99939.41
2022-12-04T16:56:21.293Z,99935.69
2022-12-04T16:58:47.993Z,99936.41
2022-12-04T17:01:28.336Z,99931.81
2022-12-04T17:06:35.214Z,99922.28
2022-12-04T17:09:01.632Z,99924.91
2022-12-04T17:11:28.186Z,99927.03
2022-12-04T17:13:54.545Z,99928.69
2022-12-04T17:16:21.114Z,99928.13
2022-12-04T17:18:47.768Z,99921.19
2022-12-04T17:21:14.675Z,99920.13
2022-12-04T17:23:41.346Z,99921.19
2022-12-04T17:26:13.473Z,99927.53
2022-12-04T17:28:40.638Z,99922.41
2022-12-04T17:31:16.326Z,99929.19
2022-12-04T17:33:43.779Z,99924.06
2022-12-04T17:36:15.251Z,99932.94
2022-12-04T17:38:41.860Z,99926.97
2022-12-04T17:41:10.420Z,99922.53
2022-12-04T17:43:36.820Z,99919.41
2022-12-04T17:46:21.487Z,99925.47
2022-12-04T17:48:48.591Z,99920.63
2022-12-04T17:51:18.026Z,99917.28
2022-12-04T17:53:44.811Z,99913.66
2022-12-04T17:56:17.345Z,99924.19
2022-12-04T17:58:44.766Z,99913.91
2022-12-04T18:01:17.756Z,99912.00
2022-12-04T18:03:49.753Z,99916.19
2022-12-04T18:06:21.362Z,99920.88
2022-12-04T18:08:50.248Z,99917.28
2022-12-04T18:11:20.417Z,99923.00
2022-12-04T18:13:48.872Z,99915.44
2022-12-04T18:16:15.803Z,99919.34
2022-12-04T18:18:42.520Z,99918.13
2022-12-04T18:21:11.292Z,99915.13
2022-12-04T18:23:44.314Z,99911.41
2022-12-04T18:26:16.937Z,99905.13
2022-12-04T18:28:43.892Z,99912.63
2022-12-04T18:31:10.860Z,99900.88
2022-12-04T18:33:39.096Z,99897.84
2022-12-04T18:36:09.125Z,99899.63
2022-12-04T18:38:35.664Z,99900.03
2022-12-04T18:41:04.086Z,99896.81
2022-12-04T18:43:33.979Z,99901.13
2022-12-04T18:46:07.075Z,99902.53
2022-12-04T18:48:34.832Z,99897.13
2022-12-04T18:51:01.491Z,99905.34
2022-12-04T18:53:28.090Z,99895.63
2022-12-04T18:55:54.573Z,99889.84
2022-12-04T18:58:22.635Z,99889.72
2022-12-04T19:00:49.317Z,99887.97
2022-12-04T19:03:15.696Z,99891.56
2022-12-04T19:05:50.008Z,99890.59
2022-12-04T19:08:17.564Z,99891.31
2022-12-04T19:10:44.083Z,99888.22
2022-12-04T19:13:10.567Z,99901.28
2022-12-04T19:15:42.651Z,99897.09
2022-12-04T19:18:09.452Z,99895.28
2022-12-04T19:20:39.520Z,99898.50
2022-12-04T19:23:05.868Z,99898.66
2022-12-04T19:25:32.565Z,99897.56
2022-12-04T19:27:59.116Z,99901.84
2022-12-04T19:30:29.843Z,99898.75
2022-12-04T19:32:56.194Z,99905.47
2022-12-04T19:35:22.560Z,99901.13
2022-12-04T19:37:55.052Z,99905.94
2022-12-04T19:40:23.608Z,99908.47
2022-12-04T19:42:50.009Z,99902.38
2022-12-04T19:45:16.564Z,99905.00
2022-12-04T19:47:43.136Z,99896.13
2022-12-04T19:50:10.116Z,99889.19
2022-12-04T19:52:36.481Z,99892.66
2022-12-04T19:55:02.982Z,99893.94
2022-12-04T19:57:29.410Z,99892.53
2022-12-04T19:59:55.768Z,99886.16
2022-12-04T20:02:22.194Z,99887.97
2022-12-04T20:04:48.675Z,99896.56
2022-12-04T20:07:15.227Z,99891.16
2022-12-04T20:09:43.132Z,99892.97
2022-12-04T20:12:12.585Z,99890.78
2022-12-04T20:14:39.066Z,99899.66
2022-12-04T20:17:05.566Z,99902.81
2022-12-04T20:19:32.347Z,99902.09
2022-12-04T20:21:59.560Z,99899.91
2022-12-04T20:24:26.356Z,99894.91
2022-12-04T20:26:52.699Z,99891.56
2022-12-04T20:29:19.187Z,99889.38
2022-12-04T20:31:46.348Z,99893.03
2022-12-04T20:34:15.654Z,99879.13
2022-12-04T20:36:44.049Z,99891.03
2022-12-04T20:39:12.076Z,99888.13
2022-12-04T20:41:38.970Z,99878.72
2022-12-04T20:44:12.019Z,99883.56
2022-12-04T20:46:39.921Z,99888.25
2022-12-04T20:49:10.025Z,99888.53
2022-12-04T20:51:39.054Z,99892.69
2022-12-04T20:54:06.035Z,99897.59
2022-12-04T20:56:35.010Z,99881.78
2022-12-04T20:59:04.867Z,99889.78
2022-12-04T21:01:31.532Z,99880.94
2022-12-04T21:03:59.050Z,99873.59
2022-12-04T21:06:34.531Z,99874.69
2022-12-04T21:09:06.533Z,99877.31
2022-12-04T21:11:36.933Z,99874.69
2022-12-04T21:14:24.868Z,99883.03
2022-12-04T21:16:51.660Z,99877.78
2022-12-04T21:19:21.057Z,99877.78
2022-12-04T21:21:47.863Z,99874.69
2022-12-04T21:24:16.678Z,99876.22
2022-12-04T21:26:43.657Z,99872.06
2022-12-04T21:29:10.443Z,99868.63
2022-12-04T21:31:38.114Z,99874.59
2022-12-04T21:34:07.261Z,99866.97
2022-12-04T21:36:34.001Z,99872.91
2022-12-04T21:39:00.476Z,99863.06
2022-12-04T21:41:45.457Z,99849.19
2022-12-04T21:44:14.865Z,99850.88
2022-12-04T21:46:41.615Z,99846.69
2022-12-04T21:49:08.169Z,99844.81
2022-12-04T21:54:21.609Z,99835.38
2022-12-04T21:56:48.326Z,99827.00
2022-12-04T21:59:14.950Z,99832.63
2022-12-04T22:01:42.024Z,99835.38
2022-12-04T22:04:08.431Z,99839.41
2022-12-04T22:06:36.232Z,99840.53
2022-12-04T22:09:06.597Z,99839.41
2022-12-04T22:11:33.652Z,99837.63
2022-12-04T22:14:00.035Z,99847.72
2022-12-04T22:16:30.372Z,99851.06
2022-12-04T22:18:58.999Z,99854.38
2022-12-04T22:21:26.674Z,99853.16
2022-12-04T22:24:01.395Z,99845.81
2022-12-04T22:26:29.344Z,99846.47
2022-12-04T22:28:56.480Z,99847.31
2022-12-04T22:31:25.846Z,99837.63
2022-12-04T22:33:54.040Z,99844.56
2022-12-04T22:36:23.665Z,99845.09
2022-12-04T22:39:09.785Z,99841.63
2022-12-04T22:41:37.354Z,99853.00
2022-12-04T22:44:04.023Z,99860.19
2022-12-04T22:46:30.772Z,99848.91
2022-12-04T22:48:58.926Z,99846.44
2022-12-04T22:51:25.355Z,99854.94
2022-12-04T22:53:54.420Z,99864.53
2022-12-04T22:56:27.753Z,99857.97
2022-12-04T22:58:55.128Z,99859.31
2022-12-04T23:01:25.797Z,99860.16
2022-12-04T23:03:53.289Z,99848.91
2022-12-04T23:06:22.444Z,99854.06
2022-12-04T23:08:53.470Z,99848.78
2022-12-04T23:11:21.926Z,99852.25
2022-12-04T23:13:54.529Z,99852.38
2022-12-04T23:16:22.733Z,99857.91
2022-12-04T23:18:49.913Z,99853.72
2022-12-04T23:21:18.075Z,99854.31
2022-12-04T23:23:46.151Z,99851.69
2022-12-04T23:26:15.691Z,99851.41
2022-12-04T23:28:42.647Z,99851.81
2022-12-04T23:31:09.279Z,99850.84
2022-12-04T23:33:35.723Z,99846.41
2022-12-04T23:36:03.300Z,99840.88
2022-12-04T23:38:30.843Z,99841.16
2022-12-04T23:41:05.552Z,99840.88
2022-12-04T23:43:32.736Z,99843.50
2022-12-04T23:45:59.241Z,99841.25
2022-12-04T23:48:25.774Z,99845.59
2022-12-04T23:50:53.127Z,99843.06
2022-12-04T23:53:20.553Z,99849.16
2022-12-04T23:56:03.562Z,99850.84
2022-12-04T23:58:31.455Z,99859.31
